Elyria, Ohio
Current Conditions -  °F | °C
As of 2:53 AM on Thursday 27 Nov 2014 (Local Time) from KLPR Reporting Station
Haze Haze  
Wind Chill: 33°   Ceiling: 2200
Heat Index: 33°   Visibility: 5mi
Dew Point: 32°   Wind: 3mph
Humidity: 96%   Direction: 330°NNW
Pressure: 30.03"   Gusts: NA
Location:  41.37°N, 82.1°W
Report Text: KLPR 270753Z AUTO 33003KT 5SM BR BKN022 OVC027 01/00 A3003 RMK AO2 SNB42E51 SLP176 P0000 T00060000 TSNO
Loading
Personal Weather Stations






























Interactive Weather Map New forecast layout! Learn more

10-Day Weather Forecast

Advertisements
Track Severe Weather on mobile